createdAt,value
2019-04-19T00:26:06.172Z,12.60
2019-04-19T02:51:53.859Z,10.90
2019-04-19T03:21:32.019Z,10.70
2019-04-19T03:24:12.407Z,10.60
2019-04-19T03:48:04.325Z,10.30
2019-04-19T04:05:09.753Z,10.10
2019-04-19T04:32:05.269Z,10.10
2019-04-19T05:04:54.999Z,11.00
2019-04-19T06:08:45.716Z,14.90
2019-04-19T06:14:33.755Z,14.90
2019-04-19T06:17:11.310Z,15.10
2019-04-19T06:19:47.107Z,15.50
2019-04-19T06:22:14.319Z,15.70
2019-04-19T06:24:54.389Z,15.90
2019-04-19T06:27:33.754Z,16.00
2019-04-19T06:29:59.059Z,15.90
2019-04-19T06:32:26.992Z,16.20
2019-04-19T06:34:52.253Z,16.70
2019-04-19T06:37:10.229Z,17.00
2019-04-19T06:39:35.280Z,17.60
2019-04-19T06:42:07.746Z,17.60
2019-04-19T06:44:58.471Z,17.80
2019-04-19T06:47:15.810Z,17.90
2019-04-19T06:49:35.957Z,18.10
2019-04-19T06:52:11.871Z,18.40
2019-04-19T06:54:39.665Z,18.50
2019-04-19T06:57:16.124Z,18.80
2019-04-19T06:59:52.052Z,19.20
2019-04-19T07:02:07.221Z,18.90
2019-04-19T07:04:46.046Z,18.90
2019-04-19T07:07:28.414Z,19.30
2019-04-19T07:10:04.232Z,19.40
2019-04-19T07:12:30.297Z,19.30
2019-04-19T07:14:52.010Z,19.80
2019-04-19T07:17:29.065Z,20.10
2019-04-19T07:19:55.031Z,20.60
2019-04-19T07:22:22.821Z,20.90
2019-04-19T07:25:04.851Z,20.30
2019-04-19T07:27:22.553Z,20.70
2019-04-19T07:29:38.555Z,20.70
2019-04-19T07:32:08.255Z,21.10
2019-04-19T07:34:51.915Z,20.60
2019-04-19T07:37:23.725Z,20.70
2019-04-19T07:40:06.056Z,21.30
2019-04-19T07:42:28.007Z,21.50
2019-04-19T07:44:50.152Z,22.20
2019-04-19T07:47:22.614Z,22.20
2019-04-19T07:49:53.344Z,22.60
2019-04-19T07:52:19.062Z,23.20
2019-04-19T07:54:45.690Z,23.00
2019-04-19T08:00:10.032Z,23.60
2019-04-19T08:05:10.900Z,23.40
2019-04-19T08:07:50.303Z,23.50
2019-04-19T08:10:10.888Z,23.80
2019-04-19T08:12:40.570Z,24.30
2019-04-19T08:15:11.850Z,24.60
2019-04-19T08:17:41.571Z,25.10
2019-04-19T08:27:16.792Z,25.70
2019-04-19T08:29:54.188Z,25.50
2019-04-19T08:32:17.342Z,25.80
2019-04-19T08:34:52.049Z,26.10
2019-04-19T08:37:23.912Z,26.50
2019-04-19T08:40:02.805Z,26.00
2019-04-19T08:42:34.254Z,26.40
2019-04-19T08:44:56.440Z,26.90
2019-04-19T08:47:41.852Z,27.20
2019-04-19T08:50:12.666Z,27.30
2019-04-19T08:52:40.673Z,27.80
2019-04-19T08:55:32.952Z,27.10
2019-04-19T08:57:41.191Z,27.50
2019-04-19T09:00:41.370Z,27.30
2019-04-19T09:02:56.414Z,27.50
2019-04-19T09:05:27.260Z,27.80
2019-04-19T09:08:07.826Z,27.60
2019-04-19T09:10:31.824Z,27.70
2019-04-19T09:13:12.250Z,27.40
2019-04-19T09:15:28.299Z,28.00
2019-04-19T09:18:27.336Z,27.70
2019-04-19T09:20:37.443Z,28.10
2019-04-19T09:23:15.681Z,28.40
2019-04-19T09:25:43.553Z,28.50
2019-04-19T09:28:31.425Z,28.40
2019-04-19T09:30:51.345Z,28.70
2019-04-19T09:33:09.873Z,28.90
2019-04-19T09:35:39.931Z,27.60
2019-04-19T09:38:15.132Z,27.70
2019-04-19T09:40:41.559Z,27.70
2019-04-19T09:43:20.991Z,27.80
2019-04-19T09:45:34.052Z,28.30
2019-04-19T09:48:03.277Z,28.30
2019-04-19T09:50:49.256Z,27.90
2019-04-19T09:53:30.746Z,28.10
2019-04-19T09:55:50.931Z,27.90
2019-04-19T09:58:20.864Z,28.20
2019-04-19T10:00:33.988Z,28.50
2019-04-19T10:03:10.940Z,28.10
2019-04-19T10:05:34.903Z,28.10
2019-04-19T10:08:03.981Z,28.40
2019-04-19T10:10:33.317Z,29.30
2019-04-19T10:13:01.971Z,29.40
2019-04-19T10:15:36.257Z,29.50
2019-04-19T10:18:05.091Z,29.70
2019-04-19T10:20:36.338Z,29.40
2019-04-19T10:23:05.297Z,29.00
2019-04-19T10:25:45.885Z,29.20
2019-04-19T10:28:05.768Z,29.00
2019-04-19T10:30:38.614Z,29.60
2019-04-19T10:33:08.620Z,29.20
2019-04-19T10:35:37.856Z,29.20
2019-04-19T10:38:07.322Z,29.20
2019-04-19T10:40:36.008Z,29.10
2019-04-19T10:43:05.157Z,29.20
2019-04-19T10:45:34.238Z,30.00
2019-04-19T10:48:04.092Z,30.10
2019-04-19T10:50:45.666Z,30.50
2019-04-19T10:53:12.307Z,31.10
2019-04-19T10:55:45.061Z,30.50
2019-04-19T10:58:14.873Z,29.90
2019-04-19T11:00:49.785Z,29.90
2019-04-19T11:03:17.296Z,29.80
2019-04-19T11:05:47.408Z,29.90
2019-04-19T11:08:15.976Z,29.50
2019-04-19T11:10:51.665Z,30.10
2019-04-19T11:13:14.989Z,30.90
2019-04-19T11:15:44.573Z,31.40
2019-04-19T11:18:13.948Z,31.20
2019-04-19T11:20:48.327Z,31.50
2019-04-19T11:23:13.600Z,32.10
2019-04-19T11:25:45.804Z,32.20
2019-04-19T11:28:13.356Z,31.90
2019-04-19T11:30:47.151Z,32.30
2019-04-19T11:33:21.205Z,31.70
2019-04-19T11:35:55.490Z,31.80
2019-04-19T11:38:25.046Z,31.50
2019-04-19T11:40:53.706Z,31.70
2019-04-19T11:43:22.206Z,32.00
2019-04-19T11:45:51.601Z,32.40
2019-04-19T11:48:20.564Z,32.90
2019-04-19T11:50:49.669Z,33.00
2019-04-19T11:53:23.049Z,32.40
2019-04-19T11:55:54.485Z,31.90
2019-04-19T11:58:24.256Z,31.70
2019-04-19T12:01:12.629Z,32.10
2019-04-19T12:03:43.297Z,32.40
2019-04-19T12:06:12.173Z,32.80
2019-04-19T12:08:42.353Z,33.20
2019-04-19T12:11:12.517Z,33.10
2019-04-19T12:30:56.955Z,32.70
2019-04-19T12:53:56.353Z,34.30
2019-04-19T13:05:51.267Z,33.70
2019-04-19T13:11:45.049Z,33.20
2019-04-19T13:17:24.798Z,34.10
2019-04-19T14:52:30.268Z,29.00
2019-04-19T15:19:04.460Z,25.40
2019-04-19T17:19:55.091Z,21.00
2019-04-19T17:55:48.225Z,19.90
2019-04-19T18:33:18.159Z,18.60
2019-04-19T19:42:24.209Z,17.00
2019-04-19T19:56:53.897Z,16.60
2019-04-19T20:41:03.958Z,15.50
2019-04-19T21:04:38.756Z,14.80
2019-04-19T21:13:20.505Z,14.60
2019-04-19T21:16:00.353Z,14.60
2019-04-19T21:57:32.629Z,13.60
2019-04-19T22:00:18.061Z,13.60
2019-04-19T22:59:41.420Z,12.50
2019-04-19T23:26:25.152Z,12.10
